<?xml version="1.0" encoding="UTF-8" standalone="no" ?>
<gpx xmlns="http://www.topografix.com/GPX/1/1" xmlns:xsi="http://www.w3.org/2001/XMLSchema-instance" xsi:schemaLocation="http://www.topografix.com/GPX/1/1 http://www.topografix.com/GPX/1/1/gpx.xsd" version="1.1" creator="VisuGPX - https://www.visugpx.com">
  <metadata>
    <name>la cavayere clv</name>
    <desc><![CDATA[efggddfgddyjykykkhhkhnggnffbbdddqvqdsqsqezearqerzy(hrrhzsrbrzbsrbsr]]></desc>
  </metadata>
  <trk>
    <name><![CDATA[Le Lac de La Cavayère]]></name>
    <trkseg>
      <trkpt lat="43.20689" lon="2.36547">
        <ele>146.353</ele>
        <time>2018-06-28T13:22:32Z</time>
      </trkpt>
      <trkpt lat="43.20652" lon="2.36615">
        <ele>138.904</ele>
        <time>2018-06-28T13:22:42Z</time>
      </trkpt>
      <trkpt lat="43.2066" lon="2.36656">
        <ele>137.214</ele>
        <time>2018-06-28T13:22:52Z</time>
      </trkpt>
      <trkpt lat="43.20573" lon="2.36678">
        <ele>143.908</ele>
        <time>2018-06-28T13:23:02Z</time>
      </trkpt>
      <trkpt lat="43.20507" lon="2.3657">
        <ele>145.457</ele>
        <time>2018-06-28T13:23:12Z</time>
      </trkpt>
      <trkpt lat="43.20485" lon="2.36561">
        <ele>144.095</ele>
        <time>2018-06-28T13:23:22Z</time>
      </trkpt>
      <trkpt lat="43.20458" lon="2.36571">
        <ele>143.911</ele>
        <time>2018-06-28T13:23:32Z</time>
      </trkpt>
      <trkpt lat="43.20427" lon="2.36623">
        <ele>146.174</ele>
        <time>2018-06-28T13:23:42Z</time>
      </trkpt>
      <trkpt lat="43.20368" lon="2.36857">
        <ele>153.344</ele>
        <time>2018-06-28T13:23:52Z</time>
      </trkpt>
      <trkpt lat="43.2032" lon="2.36967">
        <ele>155.454</ele>
        <time>2018-06-28T13:24:02Z</time>
      </trkpt>
      <trkpt lat="43.20221" lon="2.37075">
        <ele>159.02</ele>
        <time>2018-06-28T13:24:12Z</time>
      </trkpt>
      <trkpt lat="43.20171" lon="2.37083">
        <ele>159.095</ele>
        <time>2018-06-28T13:24:22Z</time>
      </trkpt>
      <trkpt lat="43.20122" lon="2.37048">
        <ele>153.657</ele>
        <time>2018-06-28T13:24:32Z</time>
      </trkpt>
      <trkpt lat="43.20063" lon="2.37091">
        <ele>153.2</ele>
        <time>2018-06-28T13:24:42Z</time>
      </trkpt>
      <trkpt lat="43.20076" lon="2.37169">
        <ele>164.82</ele>
        <time>2018-06-28T13:24:52Z</time>
      </trkpt>
      <trkpt lat="43.20033" lon="2.37246">
        <ele>168.708</ele>
        <time>2018-06-28T13:25:02Z</time>
      </trkpt>
      <trkpt lat="43.19959" lon="2.37484">
        <ele>168.077</ele>
        <time>2018-06-28T13:25:12Z</time>
      </trkpt>
      <trkpt lat="43.19801" lon="2.37827">
        <ele>188.695</ele>
        <time>2018-06-28T13:25:22Z</time>
      </trkpt>
      <trkpt lat="43.19773" lon="2.38002">
        <ele>201.471</ele>
        <time>2018-06-28T13:25:32Z</time>
      </trkpt>
      <trkpt lat="43.19738" lon="2.38102">
        <ele>204.974</ele>
        <time>2018-06-28T13:25:42Z</time>
      </trkpt>
      <trkpt lat="43.19705" lon="2.38091">
        <ele>214.614</ele>
        <time>2018-06-28T13:25:52Z</time>
      </trkpt>
      <trkpt lat="43.19634" lon="2.38158">
        <ele>224.114</ele>
        <time>2018-06-28T13:26:02Z</time>
      </trkpt>
      <trkpt lat="43.19408" lon="2.38424">
        <ele>240.88</ele>
        <time>2018-06-28T13:26:12Z</time>
      </trkpt>
      <trkpt lat="43.19297" lon="2.38583">
        <ele>249.375</ele>
        <time>2018-06-28T13:26:22Z</time>
      </trkpt>
      <trkpt lat="43.1928" lon="2.38629">
        <ele>249.922</ele>
        <time>2018-06-28T13:26:32Z</time>
      </trkpt>
      <trkpt lat="43.19235" lon="2.3865">
        <ele>251.862</ele>
        <time>2018-06-28T13:26:42Z</time>
      </trkpt>
      <trkpt lat="43.19132" lon="2.38776">
        <ele>253.808</ele>
        <time>2018-06-28T13:26:52Z</time>
      </trkpt>
      <trkpt lat="43.19015" lon="2.38888">
        <ele>242.008</ele>
        <time>2018-06-28T13:27:02Z</time>
      </trkpt>
      <trkpt lat="43.18932" lon="2.39236">
        <ele>225.654</ele>
        <time>2018-06-28T13:27:12Z</time>
      </trkpt>
      <trkpt lat="43.18948" lon="2.3974">
        <ele>203.052</ele>
        <time>2018-06-28T13:27:22Z</time>
      </trkpt>
      <trkpt lat="43.18991" lon="2.39864">
        <ele>194.598</ele>
        <time>2018-06-28T13:27:32Z</time>
      </trkpt>
      <trkpt lat="43.1888" lon="2.39939">
        <ele>200.861</ele>
        <time>2018-06-28T13:27:42Z</time>
      </trkpt>
      <trkpt lat="43.18851" lon="2.39987">
        <ele>201.291</ele>
        <time>2018-06-28T13:27:52Z</time>
      </trkpt>
      <trkpt lat="43.1884" lon="2.4005">
        <ele>200.541</ele>
        <time>2018-06-28T13:28:02Z</time>
      </trkpt>
      <trkpt lat="43.18845" lon="2.40181">
        <ele>200.247</ele>
        <time>2018-06-28T13:28:12Z</time>
      </trkpt>
      <trkpt lat="43.18825" lon="2.40237">
        <ele>198.892</ele>
        <time>2018-06-28T13:28:22Z</time>
      </trkpt>
      <trkpt lat="43.18795" lon="2.40264">
        <ele>197.577</ele>
        <time>2018-06-28T13:28:32Z</time>
      </trkpt>
      <trkpt lat="43.18675" lon="2.40313">
        <ele>208.461</ele>
        <time>2018-06-28T13:28:42Z</time>
      </trkpt>
      <trkpt lat="43.18729" lon="2.40472">
        <ele>197.327</ele>
        <time>2018-06-28T13:28:52Z</time>
      </trkpt>
      <trkpt lat="43.18715" lon="2.40686">
        <ele>183.908</ele>
        <time>2018-06-28T13:29:02Z</time>
      </trkpt>
      <trkpt lat="43.18622" lon="2.41005">
        <ele>167.789</ele>
        <time>2018-06-28T13:29:12Z</time>
      </trkpt>
      <trkpt lat="43.18559" lon="2.41068">
        <ele>162.647</ele>
        <time>2018-06-28T13:29:22Z</time>
      </trkpt>
      <trkpt lat="43.18438" lon="2.41283">
        <ele>161.253</ele>
        <time>2018-06-28T13:29:32Z</time>
      </trkpt>
      <trkpt lat="43.1831" lon="2.41333">
        <ele>169.996</ele>
        <time>2018-06-28T13:29:42Z</time>
      </trkpt>
      <trkpt lat="43.18306" lon="2.41353">
        <ele>168.616</ele>
        <time>2018-06-28T13:29:52Z</time>
      </trkpt>
      <trkpt lat="43.18269" lon="2.41356">
        <ele>166.716</ele>
        <time>2018-06-28T13:30:02Z</time>
      </trkpt>
      <trkpt lat="43.18266" lon="2.41399">
        <ele>163.892</ele>
        <time>2018-06-28T13:30:12Z</time>
      </trkpt>
      <trkpt lat="43.1829" lon="2.41445">
        <ele>162.747</ele>
        <time>2018-06-28T13:30:22Z</time>
      </trkpt>
      <trkpt lat="43.18237" lon="2.4151">
        <ele>157.761</ele>
        <time>2018-06-28T13:30:32Z</time>
      </trkpt>
      <trkpt lat="43.18231" lon="2.41541">
        <ele>156.221</ele>
        <time>2018-06-28T13:30:42Z</time>
      </trkpt>
      <trkpt lat="43.18233" lon="2.41642">
        <ele>150.013</ele>
        <time>2018-06-28T13:30:52Z</time>
      </trkpt>
      <trkpt lat="43.18255" lon="2.41657">
        <ele>147.608</ele>
        <time>2018-06-28T13:31:02Z</time>
      </trkpt>
      <trkpt lat="43.18216" lon="2.41639">
        <ele>149.488</ele>
        <time>2018-06-28T13:31:12Z</time>
      </trkpt>
      <trkpt lat="43.18161" lon="2.41546">
        <ele>144.326</ele>
        <time>2018-06-28T13:31:22Z</time>
      </trkpt>
      <trkpt lat="43.18144" lon="2.41542">
        <ele>143.372</ele>
        <time>2018-06-28T13:31:32Z</time>
      </trkpt>
      <trkpt lat="43.181" lon="2.41587">
        <ele>141.935</ele>
        <time>2018-06-28T13:31:42Z</time>
      </trkpt>
      <trkpt lat="43.1801" lon="2.41643">
        <ele>143.195</ele>
        <time>2018-06-28T13:31:52Z</time>
      </trkpt>
      <trkpt lat="43.17933" lon="2.41772">
        <ele>140.955</ele>
        <time>2018-06-28T13:32:02Z</time>
      </trkpt>
      <trkpt lat="43.17852" lon="2.41763">
        <ele>144.781</ele>
        <time>2018-06-28T13:32:12Z</time>
      </trkpt>
      <trkpt lat="43.1782" lon="2.41785">
        <ele>141.846</ele>
        <time>2018-06-28T13:32:22Z</time>
      </trkpt>
      <trkpt lat="43.17861" lon="2.41854">
        <ele>140.017</ele>
        <time>2018-06-28T13:32:32Z</time>
      </trkpt>
      <trkpt lat="43.17884" lon="2.41847">
        <ele>140.087</ele>
        <time>2018-06-28T13:32:42Z</time>
      </trkpt>
      <trkpt lat="43.1786" lon="2.41853">
        <ele>140.115</ele>
        <time>2018-06-28T13:32:52Z</time>
      </trkpt>
      <trkpt lat="43.1785" lon="2.41818">
        <ele>140.208</ele>
        <time>2018-06-28T13:33:02Z</time>
      </trkpt>
      <trkpt lat="43.17839" lon="2.41826">
        <ele>140.673</ele>
        <time>2018-06-28T13:33:12Z</time>
      </trkpt>
      <trkpt lat="43.17827" lon="2.41809">
        <ele>140.291</ele>
        <time>2018-06-28T13:33:22Z</time>
      </trkpt>
      <trkpt lat="43.17824" lon="2.41775">
        <ele>142.857</ele>
        <time>2018-06-28T13:33:32Z</time>
      </trkpt>
      <trkpt lat="43.17857" lon="2.41762">
        <ele>145.06</ele>
        <time>2018-06-28T13:33:42Z</time>
      </trkpt>
      <trkpt lat="43.17933" lon="2.41772">
        <ele>140.97</ele>
        <time>2018-06-28T13:33:52Z</time>
      </trkpt>
      <trkpt lat="43.18022" lon="2.4163">
        <ele>143.93</ele>
        <time>2018-06-28T13:34:02Z</time>
      </trkpt>
      <trkpt lat="43.181" lon="2.41587">
        <ele>141.956</ele>
        <time>2018-06-28T13:34:12Z</time>
      </trkpt>
      <trkpt lat="43.18152" lon="2.4154">
        <ele>144.111</ele>
        <time>2018-06-28T13:34:22Z</time>
      </trkpt>
      <trkpt lat="43.18216" lon="2.41639">
        <ele>149.472</ele>
        <time>2018-06-28T13:34:32Z</time>
      </trkpt>
      <trkpt lat="43.18256" lon="2.41658">
        <ele>147.713</ele>
        <time>2018-06-28T13:34:42Z</time>
      </trkpt>
      <trkpt lat="43.18308" lon="2.41795">
        <ele>144.214</ele>
        <time>2018-06-28T13:34:52Z</time>
      </trkpt>
      <trkpt lat="43.18327" lon="2.41797">
        <ele>143.308</ele>
        <time>2018-06-28T13:35:02Z</time>
      </trkpt>
      <trkpt lat="43.18419" lon="2.41721">
        <ele>147.379</ele>
        <time>2018-06-28T13:35:12Z</time>
      </trkpt>
      <trkpt lat="43.18485" lon="2.41728">
        <ele>145.917</ele>
        <time>2018-06-28T13:35:22Z</time>
      </trkpt>
      <trkpt lat="43.185" lon="2.41742">
        <ele>143.463</ele>
        <time>2018-06-28T13:35:32Z</time>
      </trkpt>
      <trkpt lat="43.18509" lon="2.41653">
        <ele>151.576</ele>
        <time>2018-06-28T13:35:42Z</time>
      </trkpt>
      <trkpt lat="43.18498" lon="2.416">
        <ele>152.356</ele>
        <time>2018-06-28T13:35:52Z</time>
      </trkpt>
      <trkpt lat="43.18557" lon="2.41526">
        <ele>149.846</ele>
        <time>2018-06-28T13:36:02Z</time>
      </trkpt>
      <trkpt lat="43.18597" lon="2.41499">
        <ele>147.612</ele>
        <time>2018-06-28T13:36:12Z</time>
      </trkpt>
      <trkpt lat="43.18647" lon="2.4151">
        <ele>151.397</ele>
        <time>2018-06-28T13:36:22Z</time>
      </trkpt>
      <trkpt lat="43.18632" lon="2.41793">
        <ele>146.283</ele>
        <time>2018-06-28T13:36:32Z</time>
      </trkpt>
      <trkpt lat="43.18637" lon="2.41807">
        <ele>146.625</ele>
        <time>2018-06-28T13:36:42Z</time>
      </trkpt>
      <trkpt lat="43.18681" lon="2.41813">
        <ele>144.417</ele>
        <time>2018-06-28T13:36:52Z</time>
      </trkpt>
      <trkpt lat="43.18689" lon="2.4183">
        <ele>136.808</ele>
        <time>2018-06-28T13:37:02Z</time>
      </trkpt>
      <trkpt lat="43.18725" lon="2.42108">
        <ele>155.93</ele>
        <time>2018-06-28T13:37:12Z</time>
      </trkpt>
      <trkpt lat="43.18553" lon="2.42204">
        <ele>141.958</ele>
        <time>2018-06-28T13:37:22Z</time>
      </trkpt>
      <trkpt lat="43.18536" lon="2.42195">
        <ele>144.384</ele>
        <time>2018-06-28T13:37:32Z</time>
      </trkpt>
      <trkpt lat="43.1851" lon="2.4214">
        <ele>144.317</ele>
        <time>2018-06-28T13:37:42Z</time>
      </trkpt>
      <trkpt lat="43.18467" lon="2.42165">
        <ele>151.667</ele>
        <time>2018-06-28T13:37:52Z</time>
      </trkpt>
      <trkpt lat="43.18436" lon="2.42156">
        <ele>144.617</ele>
        <time>2018-06-28T13:38:02Z</time>
      </trkpt>
      <trkpt lat="43.18374" lon="2.42174">
        <ele>143.783</ele>
        <time>2018-06-28T13:38:12Z</time>
      </trkpt>
      <trkpt lat="43.18339" lon="2.42206">
        <ele>143.878</ele>
        <time>2018-06-28T13:38:22Z</time>
      </trkpt>
      <trkpt lat="43.18309" lon="2.42285">
        <ele>150.697</ele>
        <time>2018-06-28T13:38:32Z</time>
      </trkpt>
      <trkpt lat="43.18257" lon="2.42357">
        <ele>152.823</ele>
        <time>2018-06-28T13:38:42Z</time>
      </trkpt>
      <trkpt lat="43.1816" lon="2.42418">
        <ele>147.325</ele>
        <time>2018-06-28T13:38:52Z</time>
      </trkpt>
      <trkpt lat="43.18144" lon="2.42378">
        <ele>146.208</ele>
        <time>2018-06-28T13:39:02Z</time>
      </trkpt>
      <trkpt lat="43.1823" lon="2.42218">
        <ele>141.561</ele>
        <time>2018-06-28T13:39:12Z</time>
      </trkpt>
      <trkpt lat="43.18207" lon="2.4217">
        <ele>145.759</ele>
        <time>2018-06-28T13:39:22Z</time>
      </trkpt>
      <trkpt lat="43.18225" lon="2.42127">
        <ele>145.065</ele>
        <time>2018-06-28T13:39:32Z</time>
      </trkpt>
      <trkpt lat="43.18216" lon="2.42088">
        <ele>148.298</ele>
        <time>2018-06-28T13:39:42Z</time>
      </trkpt>
      <trkpt lat="43.18162" lon="2.42101">
        <ele>147.778</ele>
        <time>2018-06-28T13:39:52Z</time>
      </trkpt>
      <trkpt lat="43.18121" lon="2.42086">
        <ele>147.398</ele>
        <time>2018-06-28T13:40:02Z</time>
      </trkpt>
      <trkpt lat="43.18105" lon="2.42055">
        <ele>149.194</ele>
        <time>2018-06-28T13:40:12Z</time>
      </trkpt>
      <trkpt lat="43.18134" lon="2.41991">
        <ele>145.479</ele>
        <time>2018-06-28T13:40:22Z</time>
      </trkpt>
      <trkpt lat="43.18159" lon="2.41852">
        <ele>143.244</ele>
        <time>2018-06-28T13:40:32Z</time>
      </trkpt>
      <trkpt lat="43.1815" lon="2.41816">
        <ele>144.105</ele>
        <time>2018-06-28T13:40:42Z</time>
      </trkpt>
      <trkpt lat="43.18064" lon="2.41743">
        <ele>141.515</ele>
        <time>2018-06-28T13:40:52Z</time>
      </trkpt>
      <trkpt lat="43.17934" lon="2.41861">
        <ele>145.508</ele>
        <time>2018-06-28T13:41:02Z</time>
      </trkpt>
      <trkpt lat="43.17881" lon="2.41875">
        <ele>143.126</ele>
        <time>2018-06-28T13:41:12Z</time>
      </trkpt>
      <trkpt lat="43.1786" lon="2.41867">
        <ele>141.074</ele>
        <time>2018-06-28T13:41:22Z</time>
      </trkpt>
      <trkpt lat="43.17822" lon="2.41779">
        <ele>142.37</ele>
        <time>2018-06-28T13:41:32Z</time>
      </trkpt>
      <trkpt lat="43.17857" lon="2.41762">
        <ele>145.093</ele>
        <time>2018-06-28T13:41:42Z</time>
      </trkpt>
      <trkpt lat="43.17915" lon="2.41776">
        <ele>141.423</ele>
        <time>2018-06-28T13:41:52Z</time>
      </trkpt>
      <trkpt lat="43.17942" lon="2.41765">
        <ele>140.333</ele>
        <time>2018-06-28T13:42:02Z</time>
      </trkpt>
      <trkpt lat="43.1801" lon="2.41643">
        <ele>143.119</ele>
        <time>2018-06-28T13:42:12Z</time>
      </trkpt>
      <trkpt lat="43.181" lon="2.41587">
        <ele>141.974</ele>
        <time>2018-06-28T13:42:22Z</time>
      </trkpt>
      <trkpt lat="43.18128" lon="2.41552">
        <ele>142.687</ele>
        <time>2018-06-28T13:42:32Z</time>
      </trkpt>
      <trkpt lat="43.18127" lon="2.41524">
        <ele>144.742</ele>
        <time>2018-06-28T13:42:42Z</time>
      </trkpt>
      <trkpt lat="43.18137" lon="2.41531">
        <ele>143.826</ele>
        <time>2018-06-28T13:42:52Z</time>
      </trkpt>
      <trkpt lat="43.18155" lon="2.41517">
        <ele>145.708</ele>
        <time>2018-06-28T13:43:02Z</time>
      </trkpt>
      <trkpt lat="43.1814" lon="2.41488">
        <ele>146.57</ele>
        <time>2018-06-28T13:43:12Z</time>
      </trkpt>
      <trkpt lat="43.1815" lon="2.41449">
        <ele>148.798</ele>
        <time>2018-06-28T13:43:22Z</time>
      </trkpt>
      <trkpt lat="43.18246" lon="2.41363">
        <ele>164.154</ele>
        <time>2018-06-28T13:43:32Z</time>
      </trkpt>
      <trkpt lat="43.18306" lon="2.41353">
        <ele>168.697</ele>
        <time>2018-06-28T13:43:42Z</time>
      </trkpt>
      <trkpt lat="43.1831" lon="2.41333">
        <ele>169.937</ele>
        <time>2018-06-28T13:43:52Z</time>
      </trkpt>
      <trkpt lat="43.18438" lon="2.41283">
        <ele>161.297</ele>
        <time>2018-06-28T13:44:02Z</time>
      </trkpt>
      <trkpt lat="43.18496" lon="2.41166">
        <ele>160.533</ele>
        <time>2018-06-28T13:44:12Z</time>
      </trkpt>
      <trkpt lat="43.18616" lon="2.41017">
        <ele>166.988</ele>
        <time>2018-06-28T13:44:22Z</time>
      </trkpt>
      <trkpt lat="43.18715" lon="2.40686">
        <ele>183.985</ele>
        <time>2018-06-28T13:44:32Z</time>
      </trkpt>
      <trkpt lat="43.18729" lon="2.40472">
        <ele>197.389</ele>
        <time>2018-06-28T13:44:42Z</time>
      </trkpt>
      <trkpt lat="43.18686" lon="2.40314">
        <ele>207.217</ele>
        <time>2018-06-28T13:44:52Z</time>
      </trkpt>
      <trkpt lat="43.18795" lon="2.40264">
        <ele>197.508</ele>
        <time>2018-06-28T13:45:02Z</time>
      </trkpt>
      <trkpt lat="43.18825" lon="2.40237">
        <ele>198.87</ele>
        <time>2018-06-28T13:45:12Z</time>
      </trkpt>
      <trkpt lat="43.18845" lon="2.40181">
        <ele>200.268</ele>
        <time>2018-06-28T13:45:22Z</time>
      </trkpt>
      <trkpt lat="43.18841" lon="2.4003">
        <ele>200.474</ele>
        <time>2018-06-28T13:45:32Z</time>
      </trkpt>
      <trkpt lat="43.18858" lon="2.39971">
        <ele>201.377</ele>
        <time>2018-06-28T13:45:42Z</time>
      </trkpt>
      <trkpt lat="43.18896" lon="2.39925">
        <ele>200.477</ele>
        <time>2018-06-28T13:45:52Z</time>
      </trkpt>
      <trkpt lat="43.18991" lon="2.39864">
        <ele>194.597</ele>
        <time>2018-06-28T13:46:02Z</time>
      </trkpt>
      <trkpt lat="43.18948" lon="2.3974">
        <ele>203.023</ele>
        <time>2018-06-28T13:46:12Z</time>
      </trkpt>
      <trkpt lat="43.18932" lon="2.39236">
        <ele>225.668</ele>
        <time>2018-06-28T13:46:22Z</time>
      </trkpt>
      <trkpt lat="43.19015" lon="2.38888">
        <ele>242.086</ele>
        <time>2018-06-28T13:46:32Z</time>
      </trkpt>
      <trkpt lat="43.1928" lon="2.38629">
        <ele>249.96</ele>
        <time>2018-06-28T13:46:42Z</time>
      </trkpt>
      <trkpt lat="43.19304" lon="2.3857">
        <ele>249.526</ele>
        <time>2018-06-28T13:46:52Z</time>
      </trkpt>
      <trkpt lat="43.19408" lon="2.38424">
        <ele>240.808</ele>
        <time>2018-06-28T13:47:02Z</time>
      </trkpt>
      <trkpt lat="43.19634" lon="2.38158">
        <ele>224.15</ele>
        <time>2018-06-28T13:47:12Z</time>
      </trkpt>
      <trkpt lat="43.19699" lon="2.38093">
        <ele>215.978</ele>
        <time>2018-06-28T13:47:22Z</time>
      </trkpt>
      <trkpt lat="43.19738" lon="2.38102">
        <ele>204.934</ele>
        <time>2018-06-28T13:47:32Z</time>
      </trkpt>
      <trkpt lat="43.19773" lon="2.38002">
        <ele>201.447</ele>
        <time>2018-06-28T13:47:42Z</time>
      </trkpt>
      <trkpt lat="43.19801" lon="2.37827">
        <ele>188.657</ele>
        <time>2018-06-28T13:47:52Z</time>
      </trkpt>
      <trkpt lat="43.19959" lon="2.37484">
        <ele>168.087</ele>
        <time>2018-06-28T13:48:02Z</time>
      </trkpt>
      <trkpt lat="43.20038" lon="2.37229">
        <ele>167.913</ele>
        <time>2018-06-28T13:48:12Z</time>
      </trkpt>
      <trkpt lat="43.20076" lon="2.37169">
        <ele>164.818</ele>
        <time>2018-06-28T13:48:22Z</time>
      </trkpt>
      <trkpt lat="43.20063" lon="2.37091">
        <ele>153.214</ele>
        <time>2018-06-28T13:48:32Z</time>
      </trkpt>
      <trkpt lat="43.2012" lon="2.37048">
        <ele>153.554</ele>
        <time>2018-06-28T13:48:42Z</time>
      </trkpt>
      <trkpt lat="43.20171" lon="2.37083">
        <ele>159.009</ele>
        <time>2018-06-28T13:48:52Z</time>
      </trkpt>
      <trkpt lat="43.20221" lon="2.37075">
        <ele>159.008</ele>
        <time>2018-06-28T13:49:02Z</time>
      </trkpt>
      <trkpt lat="43.20306" lon="2.36987">
        <ele>156.543</ele>
        <time>2018-06-28T13:49:12Z</time>
      </trkpt>
      <trkpt lat="43.20363" lon="2.36873">
        <ele>154.071</ele>
        <time>2018-06-28T13:49:22Z</time>
      </trkpt>
      <trkpt lat="43.20427" lon="2.36623">
        <ele>146.157</ele>
        <time>2018-06-28T13:49:32Z</time>
      </trkpt>
      <trkpt lat="43.20458" lon="2.36571">
        <ele>143.99</ele>
        <time>2018-06-28T13:49:42Z</time>
      </trkpt>
      <trkpt lat="43.20485" lon="2.36561">
        <ele>144.09</ele>
        <time>2018-06-28T13:49:52Z</time>
      </trkpt>
      <trkpt lat="43.20507" lon="2.3657">
        <ele>145.43</ele>
        <time>2018-06-28T13:50:02Z</time>
      </trkpt>
      <trkpt lat="43.20541" lon="2.3662">
        <ele>145.676</ele>
        <time>2018-06-28T13:50:12Z</time>
      </trkpt>
      <trkpt lat="43.20536" lon="2.3665">
        <ele>148.011</ele>
        <time>2018-06-28T13:50:22Z</time>
      </trkpt>
    </trkseg>
  </trk>
</gpx>